sensor_id;sensor_type;location;lat;lon;timestamp;P1;durP1;ratioP1;P2;durP2;ratioP2
67498;SDS011;54345;42.670;23.218;2022-12-18T00:01:36;24.37;;;7.33;;
67498;SDS011;54345;42.670;23.218;2022-12-18T00:04:03;17.63;;;6.30;;
67498;SDS011;54345;42.670;23.218;2022-12-18T00:06:32;34.13;;;7.87;;
67498;SDS011;54345;42.670;23.218;2022-12-18T00:08:59;17.33;;;7.07;;
67498;SDS011;54345;42.670;23.218;2022-12-18T00:11:27;14.13;;;6.77;;
67498;SDS011;54345;42.670;23.218;2022-12-18T00:13:54;14.53;;;6.07;;
67498;SDS011;54345;42.670;23.218;2022-12-18T00:16:22;12.27;;;6.30;;
67498;SDS011;54345;42.670;23.218;2022-12-18T00:18:50;20.03;;;7.23;;
67498;SDS011;54345;42.670;23.218;2022-12-18T00:21:17;12.27;;;5.93;;
67498;SDS011;54345;42.670;23.218;2022-12-18T00:23:45;11.47;;;5.97;;
67498;SDS011;54345;42.670;23.218;2022-12-18T00:26:18;17.60;;;7.23;;
67498;SDS011;54345;42.670;23.218;2022-12-18T00:28:46;21.03;;;7.83;;
67498;SDS011;54345;42.670;23.218;2022-12-18T00:31:13;12.93;;;6.33;;
67498;SDS011;54345;42.670;23.218;2022-12-18T00:33:41;12.53;;;6.20;;
67498;SDS011;54345;42.670;23.218;2022-12-18T00:36:09;14.90;;;6.93;;
67498;SDS011;54345;42.670;23.218;2022-12-18T00:38:37;13.53;;;6.17;;
67498;SDS011;54345;42.670;23.218;2022-12-18T00:41:06;27.37;;;13.00;;
67498;SDS011;54345;42.670;23.218;2022-12-18T00:43:33;14.43;;;6.73;;
67498;SDS011;54345;42.670;23.218;2022-12-18T00:45:59;14.60;;;7.23;;
67498;SDS011;54345;42.670;23.218;2022-12-18T00:48:24;22.93;;;8.87;;
67498;SDS011;54345;42.670;23.218;2022-12-18T00:50:50;19.20;;;8.40;;
67498;SDS011;54345;42.670;23.218;2022-12-18T00:53:16;13.20;;;6.53;;
67498;SDS011;54345;42.670;23.218;2022-12-18T00:55:42;14.47;;;7.63;;
67498;SDS011;54345;42.670;23.218;2022-12-18T00:58:09;14.67;;;6.93;;
67498;SDS011;54345;42.670;23.218;2022-12-18T01:00:35;10.13;;;6.23;;
67498;SDS011;54345;42.670;23.218;2022-12-18T01:03:01;16.67;;;8.57;;
67498;SDS011;54345;42.670;23.218;2022-12-18T01:05:27;11.30;;;7.40;;
67498;SDS011;54345;42.670;23.218;2022-12-18T01:07:52;12.43;;;7.90;;
67498;SDS011;54345;42.670;23.218;2022-12-18T01:10:18;11.77;;;7.23;;
67498;SDS011;54345;42.670;23.218;2022-12-18T01:12:44;15.30;;;8.67;;
67498;SDS011;54345;42.670;23.218;2022-12-18T01:15:10;17.20;;;8.60;;
67498;SDS011;54345;42.670;23.218;2022-12-18T01:17:37;14.33;;;8.03;;
67498;SDS011;54345;42.670;23.218;2022-12-18T01:20:03;11.63;;;6.97;;
67498;SDS011;54345;42.670;23.218;2022-12-18T01:22:29;12.07;;;7.27;;
67498;SDS011;54345;42.670;23.218;2022-12-18T01:24:54;16.93;;;7.90;;
67498;SDS011;54345;42.670;23.218;2022-12-18T01:27:20;11.80;;;7.17;;
67498;SDS011;54345;42.670;23.218;2022-12-18T01:29:45;13.13;;;7.30;;
67498;SDS011;54345;42.670;23.218;2022-12-18T01:32:11;11.77;;;6.90;;
67498;SDS011;54345;42.670;23.218;2022-12-18T01:34:37;10.83;;;7.10;;
67498;SDS011;54345;42.670;23.218;2022-12-18T01:37:03;17.93;;;8.73;;
67498;SDS011;54345;42.670;23.218;2022-12-18T01:39:29;15.83;;;7.87;;
67498;SDS011;54345;42.670;23.218;2022-12-18T01:41:57;11.67;;;6.87;;
67498;SDS011;54345;42.670;23.218;2022-12-18T01:47:23;20.50;;;8.53;;
67498;SDS011;54345;42.670;23.218;2022-12-18T01:49:49;14.57;;;7.70;;
67498;SDS011;54345;42.670;23.218;2022-12-18T01:52:15;14.30;;;7.10;;
67498;SDS011;54345;42.670;23.218;2022-12-18T01:54:43;14.00;;;7.37;;
67498;SDS011;54345;42.670;23.218;2022-12-18T01:57:09;13.00;;;7.57;;
67498;SDS011;54345;42.670;23.218;2022-12-18T01:59:35;12.93;;;7.57;;
67498;SDS011;54345;42.670;23.218;2022-12-18T02:02:02;12.87;;;7.77;;
67498;SDS011;54345;42.670;23.218;2022-12-18T02:04:28;15.30;;;8.57;;
67498;SDS011;54345;42.670;23.218;2022-12-18T02:09:38;10.03;;;7.00;;
67498;SDS011;54345;42.670;23.218;2022-12-18T02:12:13;11.43;;;7.67;;
67498;SDS011;54345;42.670;23.218;2022-12-18T02:14:54;9.17;;;6.60;;
67498;SDS011;54345;42.670;23.218;2022-12-18T02:17:28;13.60;;;8.37;;
67498;SDS011;54345;42.670;23.218;2022-12-18T02:28:30;13.83;;;8.73;;
67498;SDS011;54345;42.670;23.218;2022-12-18T02:30:59;14.67;;;8.20;;
67498;SDS011;54345;42.670;23.218;2022-12-18T02:33:28;9.50;;;6.63;;
67498;SDS011;54345;42.670;23.218;2022-12-18T02:35:56;9.90;;;6.50;;
67498;SDS011;54345;42.670;23.218;2022-12-18T02:38:24;11.67;;;7.40;;
67498;SDS011;54345;42.670;23.218;2022-12-18T02:40:50;8.67;;;5.50;;
67498;SDS011;54345;42.670;23.218;2022-12-18T02:43:18;12.90;;;8.23;;
67498;SDS011;54345;42.670;23.218;2022-12-18T02:45:48;9.73;;;6.60;;
67498;SDS011;54345;42.670;23.218;2022-12-18T02:48:17;11.03;;;7.53;;
67498;SDS011;54345;42.670;23.218;2022-12-18T02:51:03;12.37;;;7.20;;
67498;SDS011;54345;42.670;23.218;2022-12-18T02:53:43;18.50;;;8.50;;
67498;SDS011;54345;42.670;23.218;2022-12-18T02:56:30;17.20;;;8.03;;
67498;SDS011;54345;42.670;23.218;2022-12-18T02:59:13;20.83;;;8.87;;
67498;SDS011;54345;42.670;23.218;2022-12-18T03:04:20;11.37;;;6.80;;
67498;SDS011;54345;42.670;23.218;2022-12-18T03:06:53;12.60;;;7.20;;
67498;SDS011;54345;42.670;23.218;2022-12-18T03:09:24;9.23;;;6.73;;
67498;SDS011;54345;42.670;23.218;2022-12-18T03:12:06;10.43;;;6.77;;
67498;SDS011;54345;42.670;23.218;2022-12-18T03:15:01;11.70;;;7.13;;
67498;SDS011;54345;42.670;23.218;2022-12-18T03:17:30;10.77;;;7.50;;
67498;SDS011;54345;42.670;23.218;2022-12-18T03:19:58;11.83;;;7.37;;
67498;SDS011;54345;42.670;23.218;2022-12-18T03:22:31;8.57;;;5.97;;
67498;SDS011;54345;42.670;23.218;2022-12-18T03:24:59;12.23;;;6.70;;
67498;SDS011;54345;42.670;23.218;2022-12-18T03:27:27;9.93;;;6.70;;
67498;SDS011;54345;42.670;23.218;2022-12-18T03:30:00;8.47;;;6.60;;
67498;SDS011;54345;42.670;23.218;2022-12-18T03:32:39;13.20;;;8.60;;
67498;SDS011;54345;42.670;23.218;2022-12-18T03:35:07;8.83;;;6.87;;
67498;SDS011;54345;42.670;23.218;2022-12-18T03:37:35;8.80;;;6.63;;
67498;SDS011;54345;42.670;23.218;2022-12-18T03:40:01;8.63;;;6.53;;
67498;SDS011;54345;42.670;23.218;2022-12-18T03:48:38;7.77;;;6.57;;
67498;SDS011;54345;42.670;23.218;2022-12-18T03:51:10;25.97;;;9.53;;
67498;SDS011;54345;42.670;23.218;2022-12-18T03:53:48;9.53;;;5.90;;
67498;SDS011;54345;42.670;23.218;2022-12-18T03:56:23;17.87;;;7.70;;
67498;SDS011;54345;42.670;23.218;2022-12-18T03:58:53;8.53;;;6.37;;
67498;SDS011;54345;42.670;23.218;2022-12-18T04:01:25;9.53;;;7.20;;
67498;SDS011;54345;42.670;23.218;2022-12-18T04:04:02;11.10;;;8.03;;
67498;SDS011;54345;42.670;23.218;2022-12-18T04:06:29;12.57;;;7.90;;
67498;SDS011;54345;42.670;23.218;2022-12-18T04:08:57;10.00;;;7.50;;
67498;SDS011;54345;42.670;23.218;2022-12-18T04:11:24;8.83;;;6.43;;
67498;SDS011;54345;42.670;23.218;2022-12-18T04:13:50;9.13;;;7.10;;
67498;SDS011;54345;42.670;23.218;2022-12-18T04:16:20;10.73;;;8.20;;
67498;SDS011;54345;42.670;23.218;2022-12-18T04:18:45;10.47;;;7.23;;
67498;SDS011;54345;42.670;23.218;2022-12-18T04:21:11;9.17;;;7.33;;
67498;SDS011;54345;42.670;23.218;2022-12-18T04:23:36;12.27;;;8.33;;
67498;SDS011;54345;42.670;23.218;2022-12-18T04:26:02;10.27;;;7.63;;
67498;SDS011;54345;42.670;23.218;2022-12-18T04:28:28;11.40;;;7.67;;
67498;SDS011;54345;42.670;23.218;2022-12-18T04:30:53;11.60;;;8.83;;
67498;SDS011;54345;42.670;23.218;2022-12-18T04:33:19;9.93;;;7.70;;
67498;SDS011;54345;42.670;23.218;2022-12-18T04:35:45;11.43;;;7.90;;
67498;SDS011;54345;42.670;23.218;2022-12-18T04:38:10;10.00;;;7.60;;
67498;SDS011;54345;42.670;23.218;2022-12-18T04:40:36;11.87;;;8.63;;
67498;SDS011;54345;42.670;23.218;2022-12-18T04:43:02;12.17;;;9.40;;
67498;SDS011;54345;42.670;23.218;2022-12-18T04:45:32;12.03;;;8.57;;
67498;SDS011;54345;42.670;23.218;2022-12-18T04:47:59;11.20;;;8.07;;
67498;SDS011;54345;42.670;23.218;2022-12-18T04:50:25;12.10;;;8.23;;
67498;SDS011;54345;42.670;23.218;2022-12-18T04:52:50;10.17;;;7.60;;
67498;SDS011;54345;42.670;23.218;2022-12-18T04:55:16;12.27;;;8.20;;
67498;SDS011;54345;42.670;23.218;2022-12-18T04:57:42;10.27;;;7.90;;
67498;SDS011;54345;42.670;23.218;2022-12-18T05:00:07;9.90;;;7.30;;
67498;SDS011;54345;42.670;23.218;2022-12-18T05:02:34;11.53;;;7.33;;
67498;SDS011;54345;42.670;23.218;2022-12-18T05:04:59;11.53;;;8.40;;
67498;SDS011;54345;42.670;23.218;2022-12-18T05:07:25;9.47;;;7.13;;
67498;SDS011;54345;42.670;23.218;2022-12-18T05:09:50;11.53;;;8.37;;
67498;SDS011;54345;42.670;23.218;2022-12-18T05:12:16;9.67;;;7.53;;
67498;SDS011;54345;42.670;23.218;2022-12-18T05:14:41;13.87;;;7.90;;
67498;SDS011;54345;42.670;23.218;2022-12-18T05:17:07;10.17;;;7.40;;
67498;SDS011;54345;42.670;23.218;2022-12-18T05:19:33;10.87;;;8.23;;
67498;SDS011;54345;42.670;23.218;2022-12-18T05:21:58;16.60;;;9.10;;
67498;SDS011;54345;42.670;23.218;2022-12-18T05:24:24;9.53;;;8.07;;
67498;SDS011;54345;42.670;23.218;2022-12-18T05:26:50;13.17;;;9.33;;
67498;SDS011;54345;42.670;23.218;2022-12-18T05:29:15;10.70;;;8.03;;
67498;SDS011;54345;42.670;23.218;2022-12-18T05:31:41;14.43;;;9.57;;
67498;SDS011;54345;42.670;23.218;2022-12-18T05:34:06;13.27;;;8.90;;
67498;SDS011;54345;42.670;23.218;2022-12-18T05:36:32;10.93;;;7.97;;
67498;SDS011;54345;42.670;23.218;2022-12-18T05:38:57;11.47;;;7.90;;
67498;SDS011;54345;42.670;23.218;2022-12-18T05:41:23;10.73;;;8.13;;
67498;SDS011;54345;42.670;23.218;2022-12-18T05:43:49;12.33;;;8.40;;
67498;SDS011;54345;42.670;23.218;2022-12-18T05:46:15;13.17;;;9.27;;
67498;SDS011;54345;42.670;23.218;2022-12-18T05:48:45;13.93;;;9.83;;
67498;SDS011;54345;42.670;23.218;2022-12-18T05:51:12;16.50;;;10.47;;
67498;SDS011;54345;42.670;23.218;2022-12-18T05:53:39;14.33;;;9.53;;
67498;SDS011;54345;42.670;23.218;2022-12-18T05:56:07;15.27;;;10.67;;
67498;SDS011;54345;42.670;23.218;2022-12-18T05:58:34;17.20;;;11.37;;
67498;SDS011;54345;42.670;23.218;2022-12-18T06:01:33;12.10;;;9.13;;
67498;SDS011;54345;42.670;23.218;2022-12-18T06:03:52;12.70;;;9.70;;
67498;SDS011;54345;42.670;23.218;2022-12-18T06:06:25;13.83;;;9.70;;
67498;SDS011;54345;42.670;23.218;2022-12-18T06:08:52;15.57;;;10.40;;
67498;SDS011;54345;42.670;23.218;2022-12-18T06:11:19;15.17;;;10.73;;
67498;SDS011;54345;42.670;23.218;2022-12-18T06:13:49;13.57;;;9.53;;
67498;SDS011;54345;42.670;23.218;2022-12-18T06:16:16;16.13;;;10.83;;
67498;SDS011;54345;42.670;23.218;2022-12-18T06:18:42;15.83;;;10.67;;
67498;SDS011;54345;42.670;23.218;2022-12-18T06:21:08;13.47;;;9.63;;
67498;SDS011;54345;42.670;23.218;2022-12-18T06:23:33;16.40;;;10.80;;
67498;SDS011;54345;42.670;23.218;2022-12-18T06:26:03;18.53;;;11.03;;
67498;SDS011;54345;42.670;23.218;2022-12-18T06:28:30;16.13;;;11.10;;
67498;SDS011;54345;42.670;23.218;2022-12-18T06:30:56;18.17;;;11.47;;
67498;SDS011;54345;42.670;23.218;2022-12-18T06:33:21;16.23;;;11.47;;
67498;SDS011;54345;42.670;23.218;2022-12-18T06:35:47;15.63;;;11.30;;
67498;SDS011;54345;42.670;23.218;2022-12-18T06:38:12;18.30;;;12.57;;
67498;SDS011;54345;42.670;23.218;2022-12-18T06:40:38;16.50;;;11.47;;
67498;SDS011;54345;42.670;23.218;2022-12-18T06:43:04;15.97;;;11.40;;
67498;SDS011;54345;42.670;23.218;2022-12-18T06:45:30;17.57;;;12.33;;
67498;SDS011;54345;42.670;23.218;2022-12-18T06:47:56;18.47;;;11.30;;
67498;SDS011;54345;42.670;23.218;2022-12-18T06:50:21;18.30;;;12.00;;
67498;SDS011;54345;42.670;23.218;2022-12-18T06:52:47;16.47;;;11.47;;
67498;SDS011;54345;42.670;23.218;2022-12-18T06:55:12;15.83;;;11.10;;
67498;SDS011;54345;42.670;23.218;2022-12-18T06:57:38;18.67;;;13.23;;
67498;SDS011;54345;42.670;23.218;2022-12-18T07:00:04;19.20;;;13.07;;
67498;SDS011;54345;42.670;23.218;2022-12-18T07:02:32;17.67;;;12.17;;
67498;SDS011;54345;42.670;23.218;2022-12-18T07:04:57;19.07;;;12.50;;
67498;SDS011;54345;42.670;23.218;2022-12-18T07:07:23;16.10;;;11.33;;
67498;SDS011;54345;42.670;23.218;2022-12-18T07:09:49;17.17;;;11.57;;
67498;SDS011;54345;42.670;23.218;2022-12-18T07:12:16;15.17;;;11.23;;
67498;SDS011;54345;42.670;23.218;2022-12-18T07:14:41;15.27;;;10.73;;
67498;SDS011;54345;42.670;23.218;2022-12-18T07:17:07;14.47;;;10.77;;
67498;SDS011;54345;42.670;23.218;2022-12-18T07:19:33;17.90;;;12.33;;
67498;SDS011;54345;42.670;23.218;2022-12-18T07:21:58;16.17;;;11.33;;
67498;SDS011;54345;42.670;23.218;2022-12-18T07:24:24;15.80;;;10.23;;
67498;SDS011;54345;42.670;23.218;2022-12-18T07:26:50;15.23;;;10.63;;
67498;SDS011;54345;42.670;23.218;2022-12-18T07:29:15;15.33;;;10.37;;
67498;SDS011;54345;42.670;23.218;2022-12-18T07:31:41;14.37;;;10.37;;
67498;SDS011;54345;42.670;23.218;2022-12-18T07:34:10;18.00;;;12.63;;
67498;SDS011;54345;42.670;23.218;2022-12-18T07:36:36;16.83;;;11.33;;
67498;SDS011;54345;42.670;23.218;2022-12-18T07:39:02;14.17;;;10.10;;
67498;SDS011;54345;42.670;23.218;2022-12-18T07:41:28;15.60;;;11.43;;
67498;SDS011;54345;42.670;23.218;2022-12-18T07:43:53;18.43;;;11.60;;
67498;SDS011;54345;42.670;23.218;2022-12-18T07:46:19;15.13;;;10.27;;
67498;SDS011;54345;42.670;23.218;2022-12-18T07:48:44;16.90;;;11.23;;
67498;SDS011;54345;42.670;23.218;2022-12-18T07:51:10;13.23;;;10.13;;
67498;SDS011;54345;42.670;23.218;2022-12-18T07:53:37;14.57;;;10.27;;
67498;SDS011;54345;42.670;23.218;2022-12-18T07:56:04;16.47;;;11.67;;
67498;SDS011;54345;42.670;23.218;2022-12-18T07:58:31;15.50;;;12.17;;
67498;SDS011;54345;42.670;23.218;2022-12-18T08:01:06;15.87;;;11.40;;
67498;SDS011;54345;42.670;23.218;2022-12-18T08:03:33;16.80;;;11.13;;
67498;SDS011;54345;42.670;23.218;2022-12-18T08:06:02;14.57;;;11.03;;
67498;SDS011;54345;42.670;23.218;2022-12-18T08:08:29;19.07;;;12.77;;
67498;SDS011;54345;42.670;23.218;2022-12-18T08:10:55;15.87;;;11.67;;
67498;SDS011;54345;42.670;23.218;2022-12-18T08:13:21;20.87;;;14.60;;
67498;SDS011;54345;42.670;23.218;2022-12-18T08:15:55;16.57;;;12.47;;
67498;SDS011;54345;42.670;23.218;2022-12-18T08:18:22;18.83;;;13.20;;
67498;SDS011;54345;42.670;23.218;2022-12-18T08:20:47;21.93;;;14.43;;
67498;SDS011;54345;42.670;23.218;2022-12-18T08:23:13;18.70;;;14.57;;
67498;SDS011;54345;42.670;23.218;2022-12-18T08:25:38;22.00;;;15.47;;
67498;SDS011;54345;42.670;23.218;2022-12-18T08:28:04;20.10;;;13.80;;
67498;SDS011;54345;42.670;23.218;2022-12-18T08:30:29;19.67;;;13.83;;
67498;SDS011;54345;42.670;23.218;2022-12-18T08:32:56;24.43;;;16.60;;
67498;SDS011;54345;42.670;23.218;2022-12-18T08:35:22;22.00;;;14.60;;
67498;SDS011;54345;42.670;23.218;2022-12-18T08:37:47;24.37;;;15.90;;
67498;SDS011;54345;42.670;23.218;2022-12-18T08:40:13;20.97;;;15.23;;
67498;SDS011;54345;42.670;23.218;2022-12-18T08:42:38;21.93;;;14.93;;
67498;SDS011;54345;42.670;23.218;2022-12-18T08:45:23;20.37;;;15.33;;
67498;SDS011;54345;42.670;23.218;2022-12-18T08:47:49;21.67;;;15.93;;
67498;SDS011;54345;42.670;23.218;2022-12-18T08:50:15;23.03;;;15.50;;
67498;SDS011;54345;42.670;23.218;2022-12-18T08:52:40;22.80;;;16.20;;
67498;SDS011;54345;42.670;23.218;2022-12-18T08:55:06;27.43;;;18.00;;
67498;SDS011;54345;42.670;23.218;2022-12-18T08:57:33;22.00;;;15.40;;
67498;SDS011;54345;42.670;23.218;2022-12-18T08:59:58;24.13;;;16.57;;
67498;SDS011;54345;42.670;23.218;2022-12-18T09:02:24;24.67;;;16.67;;
67498;SDS011;54345;42.670;23.218;2022-12-18T09:04:49;27.83;;;17.27;;
67498;SDS011;54345;42.670;23.218;2022-12-18T09:07:15;22.10;;;16.10;;
67498;SDS011;54345;42.670;23.218;2022-12-18T09:09:40;22.17;;;16.83;;
67498;SDS011;54345;42.670;23.218;2022-12-18T09:12:06;26.57;;;18.00;;
67498;SDS011;54345;42.670;23.218;2022-12-18T09:14:32;21.70;;;16.40;;
67498;SDS011;54345;42.670;23.218;2022-12-18T09:16:57;25.57;;;17.20;;
67498;SDS011;54345;42.670;23.218;2022-12-18T09:19:23;25.00;;;17.27;;
67498;SDS011;54345;42.670;23.218;2022-12-18T09:21:48;23.57;;;15.33;;
67498;SDS011;54345;42.670;23.218;2022-12-18T09:24:14;21.50;;;15.07;;
67498;SDS011;54345;42.670;23.218;2022-12-18T09:26:41;24.37;;;16.07;;
67498;SDS011;54345;42.670;23.218;2022-12-18T09:29:06;23.43;;;15.40;;
67498;SDS011;54345;42.670;23.218;2022-12-18T09:31:32;21.47;;;15.70;;
67498;SDS011;54345;42.670;23.218;2022-12-18T09:33:59;23.33;;;15.77;;
67498;SDS011;54345;42.670;23.218;2022-12-18T09:36:24;24.23;;;17.10;;
67498;SDS011;54345;42.670;23.218;2022-12-18T09:38:50;23.33;;;15.47;;
67498;SDS011;54345;42.670;23.218;2022-12-18T09:44:26;23.87;;;15.37;;
67498;SDS011;54345;42.670;23.218;2022-12-18T09:47:11;22.63;;;15.67;;
67498;SDS011;54345;42.670;23.218;2022-12-18T09:49:40;20.53;;;14.33;;
67498;SDS011;54345;42.670;23.218;2022-12-18T09:52:09;19.47;;;14.70;;
67498;SDS011;54345;42.670;23.218;2022-12-18T09:54:43;23.63;;;15.93;;
67498;SDS011;54345;42.670;23.218;2022-12-18T09:57:17;20.40;;;14.67;;
67498;SDS011;54345;42.670;23.218;2022-12-18T09:59:53;20.60;;;14.47;;
67498;SDS011;54345;42.670;23.218;2022-12-18T10:02:29;18.87;;;13.20;;
67498;SDS011;54345;42.670;23.218;2022-12-18T10:15:30;22.67;;;14.50;;
67498;SDS011;54345;42.670;23.218;2022-12-18T10:20:43;22.20;;;15.73;;
67498;SDS011;54345;42.670;23.218;2022-12-18T10:23:18;22.53;;;16.00;;
67498;SDS011;54345;42.670;23.218;2022-12-18T10:28:35;21.70;;;14.77;;
67498;SDS011;54345;42.670;23.218;2022-12-18T10:31:01;22.67;;;13.83;;
67498;SDS011;54345;42.670;23.218;2022-12-18T10:33:28;20.90;;;14.03;;
67498;SDS011;54345;42.670;23.218;2022-12-18T10:35:56;22.47;;;15.00;;
67498;SDS011;54345;42.670;23.218;2022-12-18T10:38:29;20.03;;;14.13;;
67498;SDS011;54345;42.670;23.218;2022-12-18T10:41:01;20.03;;;13.70;;
67498;SDS011;54345;42.670;23.218;2022-12-18T10:43:30;20.07;;;13.00;;
67498;SDS011;54345;42.670;23.218;2022-12-18T10:45:58;18.60;;;12.70;;
67498;SDS011;54345;42.670;23.218;2022-12-18T10:54:05;21.47;;;13.90;;
67498;SDS011;54345;42.670;23.218;2022-12-18T10:56:47;22.53;;;14.70;;
67498;SDS011;54345;42.670;23.218;2022-12-18T10:59:13;24.57;;;14.67;;
67498;SDS011;54345;42.670;23.218;2022-12-18T11:01:53;19.50;;;12.87;;
67498;SDS011;54345;42.670;23.218;2022-12-18T11:04:28;18.63;;;12.80;;
67498;SDS011;54345;42.670;23.218;2022-12-18T11:09:22;22.70;;;12.57;;
67498;SDS011;54345;42.670;23.218;2022-12-18T11:11:50;18.33;;;13.03;;
67498;SDS011;54345;42.670;23.218;2022-12-18T11:14:34;18.33;;;11.97;;
67498;SDS011;54345;42.670;23.218;2022-12-18T11:17:18;18.80;;;13.13;;
67498;SDS011;54345;42.670;23.218;2022-12-18T11:19:45;17.23;;;11.23;;
67498;SDS011;54345;42.670;23.218;2022-12-18T11:22:19;18.23;;;12.70;;
67498;SDS011;54345;42.670;23.218;2022-12-18T11:24:57;16.40;;;11.93;;
67498;SDS011;54345;42.670;23.218;2022-12-18T11:27:25;14.90;;;10.57;;
67498;SDS011;54345;42.670;23.218;2022-12-18T11:29:51;17.40;;;12.17;;
67498;SDS011;54345;42.670;23.218;2022-12-18T11:34:44;19.20;;;11.77;;
67498;SDS011;54345;42.670;23.218;2022-12-18T11:37:14;17.07;;;12.00;;
67498;SDS011;54345;42.670;23.218;2022-12-18T11:39:52;16.97;;;11.80;;
67498;SDS011;54345;42.670;23.218;2022-12-18T11:42:35;19.97;;;12.27;;
67498;SDS011;54345;42.670;23.218;2022-12-18T11:45:21;18.93;;;12.83;;
67498;SDS011;54345;42.670;23.218;2022-12-18T11:50:45;21.10;;;12.40;;
67498;SDS011;54345;42.670;23.218;2022-12-18T11:53:14;21.30;;;12.07;;
67498;SDS011;54345;42.670;23.218;2022-12-18T12:01:07;19.80;;;12.57;;
67498;SDS011;54345;42.670;23.218;2022-12-18T12:12:13;19.57;;;12.50;;
67498;SDS011;54345;42.670;23.218;2022-12-18T12:14:47;20.40;;;12.90;;
67498;SDS011;54345;42.670;23.218;2022-12-18T12:17:35;16.87;;;11.13;;
67498;SDS011;54345;42.670;23.218;2022-12-18T12:20:10;19.07;;;12.10;;
67498;SDS011;54345;42.670;23.218;2022-12-18T12:28:09;20.70;;;13.23;;
67498;SDS011;54345;42.670;23.218;2022-12-18T12:31:21;20.43;;;13.23;;
67498;SDS011;54345;42.670;23.218;2022-12-18T12:33:51;24.03;;;14.63;;
67498;SDS011;54345;42.670;23.218;2022-12-18T12:39:29;21.73;;;14.40;;
67498;SDS011;54345;42.670;23.218;2022-12-18T12:41:59;17.80;;;12.57;;
67498;SDS011;54345;42.670;23.218;2022-12-18T12:44:50;18.13;;;12.70;;
67498;SDS011;54345;42.670;23.218;2022-12-18T12:47:22;24.30;;;13.73;;
67498;SDS011;54345;42.670;23.218;2022-12-18T12:49:53;21.40;;;13.17;;
67498;SDS011;54345;42.670;23.218;2022-12-18T12:55:21;24.00;;;15.37;;
67498;SDS011;54345;42.670;23.218;2022-12-18T13:00:23;20.23;;;13.07;;
67498;SDS011;54345;42.670;23.218;2022-12-18T13:03:01;19.43;;;13.03;;
67498;SDS011;54345;42.670;23.218;2022-12-18T13:05:50;16.00;;;11.53;;
67498;SDS011;54345;42.670;23.218;2022-12-18T13:08:29;18.57;;;12.33;;
67498;SDS011;54345;42.670;23.218;2022-12-18T13:10:57;20.17;;;12.77;;
67498;SDS011;54345;42.670;23.218;2022-12-18T13:13:56;18.80;;;12.77;;
67498;SDS011;54345;42.670;23.218;2022-12-18T13:16:23;18.37;;;12.33;;
67498;SDS011;54345;42.670;23.218;2022-12-18T13:18:53;20.03;;;13.80;;
67498;SDS011;54345;42.670;23.218;2022-12-18T13:21:25;18.10;;;12.33;;
67498;SDS011;54345;42.670;23.218;2022-12-18T13:23:54;22.47;;;14.00;;
67498;SDS011;54345;42.670;23.218;2022-12-18T13:28:50;20.53;;;13.43;;
67498;SDS011;54345;42.670;23.218;2022-12-18T13:34:56;21.00;;;13.23;;
67498;SDS011;54345;42.670;23.218;2022-12-18T13:36:54;16.77;;;12.03;;
67498;SDS011;54345;42.670;23.218;2022-12-18T13:39:41;20.93;;;13.27;;
67498;SDS011;54345;42.670;23.218;2022-12-18T13:44:36;18.00;;;12.83;;
67498;SDS011;54345;42.670;23.218;2022-12-18T13:47:02;19.93;;;13.20;;
67498;SDS011;54345;42.670;23.218;2022-12-18T13:49:37;20.10;;;13.73;;
67498;SDS011;54345;42.670;23.218;2022-12-18T13:55:01;16.80;;;11.97;;
67498;SDS011;54345;42.670;23.218;2022-12-18T13:57:31;22.03;;;13.43;;
67498;SDS011;54345;42.670;23.218;2022-12-18T14:02:50;22.43;;;13.43;;
67498;SDS011;54345;42.670;23.218;2022-12-18T14:07:48;20.90;;;13.80;;
67498;SDS011;54345;42.670;23.218;2022-12-18T14:10:14;20.20;;;12.73;;
67498;SDS011;54345;42.670;23.218;2022-12-18T14:12:44;25.70;;;11.93;;
67498;SDS011;54345;42.670;23.218;2022-12-18T14:15:34;16.83;;;11.60;;
67498;SDS011;54345;42.670;23.218;2022-12-18T14:20:48;20.20;;;13.07;;
67498;SDS011;54345;42.670;23.218;2022-12-18T14:23:35;21.10;;;12.83;;
67498;SDS011;54345;42.670;23.218;2022-12-18T14:28:57;19.03;;;12.23;;
67498;SDS011;54345;42.670;23.218;2022-12-18T14:31:29;16.77;;;11.17;;
67498;SDS011;54345;42.670;23.218;2022-12-18T14:33:55;18.00;;;12.37;;
67498;SDS011;54345;42.670;23.218;2022-12-18T14:36:22;16.53;;;11.70;;
67498;SDS011;54345;42.670;23.218;2022-12-18T14:38:50;19.67;;;12.70;;
67498;SDS011;54345;42.670;23.218;2022-12-18T14:41:18;18.83;;;12.17;;
67498;SDS011;54345;42.670;23.218;2022-12-18T14:43:47;18.17;;;12.40;;
67498;SDS011;54345;42.670;23.218;2022-12-18T14:46:28;16.63;;;11.17;;
67498;SDS011;54345;42.670;23.218;2022-12-18T14:51:56;18.77;;;12.13;;
67498;SDS011;54345;42.670;23.218;2022-12-18T14:54:24;18.30;;;12.23;;
67498;SDS011;54345;42.670;23.218;2022-12-18T14:56:51;17.53;;;11.80;;
67498;SDS011;54345;42.670;23.218;2022-12-18T14:59:20;19.33;;;12.93;;
67498;SDS011;54345;42.670;23.218;2022-12-18T15:05:02;19.20;;;13.07;;
67498;SDS011;54345;42.670;23.218;2022-12-18T15:07:47;17.40;;;12.33;;
67498;SDS011;54345;42.670;23.218;2022-12-18T15:10:19;17.67;;;11.93;;
67498;SDS011;54345;42.670;23.218;2022-12-18T15:13:05;18.40;;;12.00;;
67498;SDS011;54345;42.670;23.218;2022-12-18T15:26:16;18.27;;;11.93;;
67498;SDS011;54345;42.670;23.218;2022-12-18T15:28:47;16.87;;;11.63;;
67498;SDS011;54345;42.670;23.218;2022-12-18T15:36:18;19.80;;;13.53;;
67498;SDS011;54345;42.670;23.218;2022-12-18T15:38:48;16.47;;;11.67;;
67498;SDS011;54345;42.670;23.218;2022-12-18T15:41:15;19.70;;;13.37;;
67498;SDS011;54345;42.670;23.218;2022-12-18T15:43:43;18.63;;;11.97;;
67498;SDS011;54345;42.670;23.218;2022-12-18T15:46:13;17.07;;;12.27;;
67498;SDS011;54345;42.670;23.218;2022-12-18T15:48:42;16.63;;;10.60;;
67498;SDS011;54345;42.670;23.218;2022-12-18T15:51:16;17.17;;;11.83;;
67498;SDS011;54345;42.670;23.218;2022-12-18T15:53:45;17.43;;;10.77;;
67498;SDS011;54345;42.670;23.218;2022-12-18T15:56:13;20.23;;;10.90;;
67498;SDS011;54345;42.670;23.218;2022-12-18T15:58:58;19.67;;;10.87;;
67498;SDS011;54345;42.670;23.218;2022-12-18T16:01:25;17.47;;;12.07;;
67498;SDS011;54345;42.670;23.218;2022-12-18T16:03:53;19.63;;;11.67;;
67498;SDS011;54345;42.670;23.218;2022-12-18T16:06:19;18.87;;;11.20;;
67498;SDS011;54345;42.670;23.218;2022-12-18T16:08:45;18.73;;;12.47;;
67498;SDS011;54345;42.670;23.218;2022-12-18T16:14:24;22.17;;;12.43;;
67498;SDS011;54345;42.670;23.218;2022-12-18T16:16:52;16.67;;;11.03;;
67498;SDS011;54345;42.670;23.218;2022-12-18T16:19:22;19.70;;;12.37;;
67498;SDS011;54345;42.670;23.218;2022-12-18T16:21:48;19.40;;;11.83;;
67498;SDS011;54345;42.670;23.218;2022-12-18T16:24:21;19.10;;;12.13;;
67498;SDS011;54345;42.670;23.218;2022-12-18T16:26:50;19.60;;;12.57;;
67498;SDS011;54345;42.670;23.218;2022-12-18T16:29:17;18.13;;;12.07;;
67498;SDS011;54345;42.670;23.218;2022-12-18T16:31:43;18.63;;;11.70;;
67498;SDS011;54345;42.670;23.218;2022-12-18T16:34:20;20.80;;;12.37;;
67498;SDS011;54345;42.670;23.218;2022-12-18T16:36:56;21.10;;;13.80;;